Time;durP1;ratioP1;P1;durP2;ratioP2;P2;SDS_P1;SDS_P2;PMS_P1;PMS_P2;Temp;Humidity;BMP_temperature;BMP_pressure;BME280_temperature;BME280_humidity;BME280_pressure;Samples;Min_cycle;Max_cycle;Signal;HPM_P1;HPM_P2
2022/06/04 00:00:58;;;;;;;14.48;10.00;;;;;;;19.24;100.00;97371.00;4985158;28;20161;-65
2022/06/04 00:03:27;;;;;;;15.40;10.25;;;;;;;19.33;100.00;97367.72;4984556;28;20050;-65
2022/06/04 00:05:56;;;;;;;11.70;10.25;;;;;;;19.02;100.00;97296.63;4985010;28;20434;-65
2022/06/04 00:08:24;;;;;;;12.95;10.15;;;;;;;18.62;100.00;97238.53;4983675;28;20532;-65
2022/06/04 00:16:27;;;;;;;13.52;9.48;;;;;;;18.93;100.00;97271.06;4984643;28;20058;-65
2022/06/04 00:18:54;;;;;;;11.48;9.57;;;;;;;19.45;100.00;97345.47;4982985;28;20544;-64
2022/06/04 00:21:22;;;;;;;15.00;9.68;;;;;;;18.82;100.00;97253.56;4983248;28;20058;-65
2022/06/04 00:23:50;;;;;;;11.82;8.75;;;;;;;19.33;100.00;97319.97;4984655;28;20066;-65
2022/06/04 00:26:18;;;;;;;12.48;8.75;;;;;;;19.17;100.00;97306.47;4984449;28;20521;-65
2022/06/04 00:28:48;;;;;;;12.50;9.15;;;;;;;19.17;100.00;97320.50;4983431;28;20149;-65
2022/06/04 00:31:17;;;;;;;12.02;8.55;;;;;;;19.18;100.00;97322.13;4985089;28;20086;-64
2022/06/04 00:33:45;;;;;;;13.73;9.45;;;;;;;19.26;100.00;97318.00;4984232;28;20062;-65
2022/06/04 00:36:12;;;;;;;12.90;9.45;;;;;;;19.26;100.00;97317.19;4983050;28;20112;-64
2022/06/04 00:38:39;;;;;;;13.20;8.93;;;;;;;19.04;100.00;97291.41;4984494;28;20051;-65
2022/06/04 00:41:10;;;;;;;11.70;9.18;;;;;;;19.11;100.00;97322.19;4984245;28;20058;-65
2022/06/04 00:44:03;;;;;;;13.13;9.77;;;;;;;18.99;100.00;97303.09;4984658;28;20057;-65
2022/06/04 00:46:42;;;;;;;14.32;9.45;;;;;;;18.93;100.00;97306.78;4984430;28;20174;-65
2022/06/04 00:49:12;;;;;;;15.18;8.95;;;;;;;18.95;100.00;97307.16;4984408;28;20050;-65
2022/06/04 00:51:42;;;;;;;13.15;8.98;;;;;;;18.70;100.00;97296.19;4984224;28;20058;-65
2022/06/04 00:54:09;;;;;;;13.52;8.93;;;;;;;18.41;100.00;97221.97;4984560;28;20133;-65
2022/06/04 00:56:57;;;;;;;10.75;9.13;;;;;;;18.89;100.00;97312.41;4984172;28;20879;-65
2022/06/04 01:00:02;;;;;;;13.60;9.13;;;;;;;18.92;100.00;97297.53;4983892;28;20064;-65
2022/06/04 01:02:44;;;;;;;12.02;8.75;;;;;;;18.95;100.00;97296.69;4984427;28;20050;-65
2022/06/04 01:05:25;;;;;;;12.80;8.82;;;;;;;18.99;100.00;97297.47;4984335;28;20054;-65
2022/06/04 01:08:19;;;;;;;12.15;8.68;;;;;;;18.96;100.00;97298.31;4998583;28;20054;-65
2022/06/04 01:11:04;;;;;;;11.60;9.55;;;;;;;18.89;100.00;97306.81;4984595;28;20141;-65
2022/06/04 01:13:42;;;;;;;13.55;9.90;;;;;;;18.68;100.00;97304.25;4984063;28;20113;-65
2022/06/04 01:16:18;;;;;;;13.13;10.15;;;;;;;18.42;100.00;97290.88;4982398;28;20557;-65
2022/06/04 01:19:22;;;;;;;11.60;9.60;;;;;;;18.67;100.00;97308.25;4984081;28;20065;-65
2022/06/04 01:22:31;;;;;;;12.32;9.88;;;;;;;18.59;100.00;97305.94;4984045;28;20054;-65
2022/06/04 01:25:25;;;;;;;12.40;10.95;;;;;;;18.39;100.00;97302.94;4998107;28;20062;-64
2022/06/04 01:28:07;;;;;;;13.82;10.95;;;;;;;18.18;100.00;97291.88;4984405;28;20058;-65
2022/06/04 01:30:47;;;;;;;12.38;10.57;;;;;;;17.79;100.00;97229.72;4984694;28;20169;-65
2022/06/04 01:33:23;;;;;;;19.25;11.77;;;;;;;18.19;100.00;97299.09;4984155;28;20502;-65
2022/06/04 01:36:20;;;;;;;19.00;11.50;;;;;;;18.19;100.00;97289.88;4983722;28;20054;-65
2022/06/04 01:38:53;;;;;;;16.45;10.90;;;;;;;18.27;100.00;97299.81;4974373;28;20058;-65
2022/06/04 01:41:43;;;;;;;15.30;12.00;;;;;;;18.25;100.00;97297.41;4983725;28;20062;-65
2022/06/04 01:44:15;;;;;;;14.45;11.05;;;;;;;18.04;100.00;97269.56;4984392;28;20058;-64
2022/06/04 01:46:46;;;;;;;15.18;10.65;;;;;;;18.36;100.00;97291.69;4982313;28;20050;-65
2022/06/04 01:50:00;;;;;;;12.77;10.60;;;;;;;18.41;100.00;97283.69;4966542;28;20060;-65
2022/06/04 01:52:32;;;;;;;13.43;11.23;;;;;;;18.37;100.00;97284.91;4984863;28;20660;-65
2022/06/04 01:55:18;;;;;;;14.88;11.15;;;;;;;18.42;100.00;97290.88;4983528;28;20054;-64
2022/06/04 01:58:03;;;;;;;12.48;9.98;;;;;;;18.45;100.00;97284.44;4985542;28;20560;-65
2022/06/04 02:00:47;;;;;;;14.60;9.85;;;;;;;18.49;100.00;97296.44;4987604;28;20055;-64
2022/06/04 02:03:31;;;;;;;12.82;10.05;;;;;;;18.37;100.00;97282.88;4987185;28;20054;-65
2022/06/04 02:06:25;;;;;;;10.27;9.25;;;;;;;18.33;100.00;97293.34;5002131;28;20090;-65
2022/06/04 02:09:11;;;;;;;11.77;9.75;;;;;;;18.31;100.00;97295.75;4986990;28;20161;-64
2022/06/04 02:11:43;;;;;;;16.00;9.73;;;;;;;18.22;100.00;97264.59;4987554;28;20054;-65
2022/06/04 02:14:11;;;;;;;15.68;9.80;;;;;;;18.29;100.00;97281.34;4985525;28;20054;-65
2022/06/04 02:16:48;;;;;;;16.85;9.45;;;;;;;18.16;100.00;97277.47;4987299;28;20085;-65
2022/06/04 02:19:15;;;;;;;13.45;9.82;;;;;;;18.08;100.00;97284.34;4987075;28;20177;-65
2022/06/04 02:21:49;;;;;;;15.55;9.68;;;;;;;17.64;100.00;97217.06;4986741;28;20157;-65
2022/06/04 02:24:16;;;;;;;13.93;8.65;;;;;;;18.07;100.00;97291.16;4986654;28;20108;-65
2022/06/04 02:26:43;;;;;;;19.50;10.25;;;;;;;17.68;100.00;97245.84;4986771;28;20050;-65
2022/06/04 02:29:10;;;;;;;10.88;8.90;;;;;;;18.00;100.00;97305.25;5001591;28;20058;-65
2022/06/04 02:32:03;;;;;;;13.68;9.70;;;;;;;17.88;100.00;97305.72;4986817;28;20073;-65
2022/06/04 02:34:46;;;;;;;14.27;9.90;;;;;;;17.87;100.00;97304.94;4986093;28;20062;-65
2022/06/04 02:37:24;;;;;;;12.35;9.55;;;;;;;17.85;100.00;97290.53;4987056;28;20084;-65
2022/06/04 02:40:11;;;;;;;13.43;9.32;;;;;;;17.82;100.00;97312.97;4986963;28;20469;-64
2022/06/04 02:42:55;;;;;;;15.57;9.52;;;;;;;17.72;100.00;97292.22;4986614;28;20263;-65
2022/06/04 02:45:29;;;;;;;13.30;9.38;;;;;;;17.85;100.00;97309.34;4986461;28;20061;-64
2022/06/04 02:48:10;;;;;;;10.32;8.90;;;;;;;17.87;100.00;97306.94;4986373;28;20053;-65
2022/06/04 02:50:54;;;;;;;13.85;8.80;;;;;;;17.50;100.00;97250.75;4986035;28;20064;-64
2022/06/04 02:53:21;;;;;;;;;;;;;;;17.95;100.00;97317.69;4985736;28;20058;-64
2022/06/04 02:55:53;;;;;;;11.30;9.40;;;;;;;17.97;100.00;97314.47;4986105;28;19932;-64
2022/06/04 02:58:21;;;;;;;12.05;9.40;;;;;;;18.06;100.00;97314.81;4986647;28;20078;-65
2022/06/04 03:00:53;;;;;;;13.15;9.50;;;;;;;17.93;100.00;97313.69;4986399;28;20051;-64
2022/06/04 03:03:21;;;;;;;16.60;10.25;;;;;;;17.98;100.00;97316.06;4984673;28;20055;-65
2022/06/04 03:05:58;;;;;;;13.25;9.63;;;;;;;18.10;100.00;97329.56;4984576;28;20116;-65
2022/06/04 03:08:30;;;;;;;13.77;9.90;;;;;;;18.02;100.00;97316.81;4986214;28;20133;-64
2022/06/04 03:10:57;;;;;;;13.45;9.55;;;;;;;18.14;100.00;97335.97;5000657;28;20058;-64
2022/06/04 03:13:25;;;;;;;17.90;10.23;;;;;;;18.18;100.00;97342.34;4986178;28;20556;-64
2022/06/04 03:15:52;;;;;;;11.18;9.95;;;;;;;18.09;100.00;97356.03;4986256;28;20058;-65
2022/06/04 03:18:20;;;;;;;12.88;9.52;;;;;;;18.18;100.00;97352.78;4985867;28;20069;-65
2022/06/04 03:20:47;;;;;;;14.90;10.43;;;;;;;17.72;100.00;97269.03;5000798;28;20425;-64
2022/06/04 03:23:15;;;;;;;14.70;9.43;;;;;;;18.26;100.00;97360.69;4986404;28;20516;-65
2022/06/04 03:25:43;;;;;;;11.20;8.80;;;;;;;18.05;99.06;97299.22;5000592;28;20081;-65
2022/06/04 03:28:10;;;;;;;14.05;9.32;;;;;;;18.08;98.76;97298.38;4985382;28;20094;-65
2022/06/04 03:30:38;;;;;;;12.25;8.98;;;;;;;18.33;99.33;97360.66;4984309;28;20543;-64
2022/06/04 03:33:07;;;;;;;14.30;9.63;;;;;;;18.31;100.00;97360.25;4985220;28;20486;-64
2022/06/04 03:35:34;;;;;;;13.93;10.25;;;;;;;18.56;98.56;97358.06;4985260;28;20049;-65
2022/06/04 03:38:01;;;;;;;11.80;9.73;;;;;;;18.77;97.27;97352.25;4985902;28;20050;-65
2022/06/04 03:40:28;;;;;;;14.30;9.02;;;;;;;18.80;98.21;97357.03;4985342;28;20050;-64
2022/06/04 03:42:55;;;;;;;11.98;8.48;;;;;;;18.88;99.00;97350.13;4985455;28;20081;-64
2022/06/04 03:45:24;;;;;;;10.68;8.88;;;;;;;19.00;97.34;97360.06;4985338;28;20150;-65
2022/06/04 03:47:51;;;;;;;11.23;9.35;;;;;;;19.11;97.27;97355.88;4983956;28;20201;-64
2022/06/04 03:50:19;;;;;;;12.63;8.60;;;;;;;19.18;97.43;97355.81;4985231;28;20065;-64
2022/06/04 03:52:47;;;;;;;13.43;8.73;;;;;;;19.24;95.24;97337.28;4984954;28;20089;-64
2022/06/04 03:55:16;;;;;;;10.80;8.63;;;;;;;19.43;93.88;97359.16;4985289;28;20061;-65
2022/06/04 03:57:48;;;;;;;12.05;8.73;;;;;;;19.39;94.13;97355.56;5000035;28;20138;-64
2022/06/04 04:00:36;;;;;;;10.00;8.10;;;;;;;19.48;93.77;97364.31;4985259;28;20089;-64
2022/06/04 04:03:12;;;;;;;9.88;8.52;;;;;;;19.43;94.12;97355.53;5016574;28;20517;-65
2022/06/04 04:05:45;;;;;;;12.60;8.88;;;;;;;19.69;94.14;97374.47;5004373;28;20077;-64
2022/06/04 04:08:12;;;;;;;8.95;8.10;;;;;;;19.83;92.49;97377.09;5004591;28;20061;-65
2022/06/04 04:10:42;;;;;;;9.32;8.10;;;;;;;19.93;92.29;97372.53;5002774;28;20057;-65
2022/06/04 04:13:09;;;;;;;9.55;8.50;;;;;;;20.06;91.51;97370.75;5004086;28;20049;-65
2022/06/04 04:15:40;;;;;;;12.25;9.80;;;;;;;20.20;90.89;97370.56;5003378;28;20173;-65
2022/06/04 04:18:08;;;;;;;12.60;8.15;;;;;;;20.30;90.08;97364.75;5002740;28;20340;-65
2022/06/04 04:20:38;;;;;;;11.00;8.63;;;;;;;20.51;88.38;97363.59;5004078;28;20144;-65
2022/06/04 04:23:07;;;;;;;11.18;8.07;;;;;;;20.51;88.58;97363.59;5003562;28;20077;-65
2022/06/04 04:25:36;;;;;;;12.63;8.77;;;;;;;20.52;86.46;97337.03;5002648;28;20050;-65
2022/06/04 04:28:04;;;;;;;10.18;7.95;;;;;;;20.51;87.16;97336.25;5000709;28;20060;-65
2022/06/04 04:30:33;;;;;;;9.35;8.32;;;;;;;20.81;86.02;97360.66;5000605;28;20057;-65
2022/06/04 04:33:01;;;;;;;9.07;7.93;;;;;;;20.67;85.78;97311.06;5002444;28;20447;-65
2022/06/04 04:35:31;;;;;;;9.48;7.88;;;;;;;20.93;85.92;97357.22;5002554;28;20638;-65
2022/06/04 04:37:59;;;;;;;11.20;8.00;;;;;;;20.85;85.74;97333.22;5003257;28;20053;-65
2022/06/04 04:40:29;;;;;;;11.75;8.43;;;;;;;21.11;85.37;97357.72;5002830;28;20057;-65
2022/06/04 04:42:58;;;;;;;12.95;8.50;;;;;;;21.20;84.47;97349.47;5002495;28;20053;-65
2022/06/04 04:45:26;;;;;;;10.23;8.18;;;;;;;21.46;83.33;97361.84;5001828;28;20111;-64
2022/06/04 04:47:54;;;;;;;11.73;8.32;;;;;;;21.22;82.97;97316.03;5004218;28;20057;-65
2022/06/04 04:50:30;;;;;;;12.07;8.80;;;;;;;21.64;82.46;97368.69;5002418;28;20068;-65
2022/06/04 04:52:58;;;;;;;12.30;9.05;;;;;;;21.89;81.46;97366.16;5004422;28;20061;-65
2022/06/04 04:55:30;;;;;;;13.00;8.98;;;;;;;21.98;80.33;97349.44;5004257;28;20499;-65
2022/06/04 04:57:57;;;;;;;12.80;8.80;;;;;;;22.14;80.56;97357.94;5002955;28;20560;-65
2022/06/04 05:00:24;;;;;;;11.13;8.20;;;;;;;22.21;80.04;97328.72;5002316;28;20064;-65
2022/06/04 05:02:51;;;;;;;10.15;8.70;;;;;;;22.46;79.18;97351.53;5003963;28;20061;-65
2022/06/04 05:05:18;;;;;;;11.07;8.45;;;;;;;22.62;78.67;97347.94;5002815;28;20054;-65
2022/06/04 05:07:45;;;;;;;11.02;7.53;;;;;;;22.72;79.17;97352.50;5004285;28;20053;-65
2022/06/04 05:10:14;;;;;;;10.90;8.80;;;;;;;22.92;78.54;97367.31;5004266;28;20045;-65
2022/06/04 05:12:41;;;;;;;12.95;8.07;;;;;;;23.19;76.63;97359.31;5019009;28;20112;-65
2022/06/04 05:15:08;;;;;;;12.20;7.93;;;;;;;23.03;77.79;97356.53;5004150;28;20142;-65
2022/06/04 05:17:35;;;;;;;11.52;8.35;;;;;;;23.20;76.37;97355.25;5004077;28;20049;-65
2022/06/04 05:20:03;;;;;;;9.25;8.13;;;;;;;23.33;75.93;97358.97;5004869;28;20070;-65
2022/06/04 05:22:31;;;;;;;10.15;8.32;;;;;;;23.54;76.01;97359.13;5018314;28;20140;-66
2022/06/04 05:24:58;;;;;;;15.38;8.65;;;;;;;23.57;75.22;97341.25;5004299;28;20050;-65
2022/06/04 05:27:25;;;;;;;10.43;7.93;;;;;;;23.78;73.53;97342.66;5003190;28;20081;-65
2022/06/04 05:29:51;;;;;;;8.90;7.95;;;;;;;23.88;71.75;97330.25;5018236;28;20065;-65
2022/06/04 05:32:19;;;;;;;12.23;7.95;;;;;;;24.22;70.87;97344.53;5004179;28;20058;-65
2022/06/04 05:34:45;;;;;;;8.32;7.50;;;;;;;24.44;68.34;97348.28;5007384;28;20065;-65
2022/06/04 05:37:12;;;;;;;9.43;7.78;;;;;;;24.58;67.09;97350.63;5007677;28;20527;-65
2022/06/04 05:39:39;;;;;;;8.13;7.03;;;;;;;24.46;67.70;97357.13;5005935;28;20046;-66
2022/06/04 05:42:07;;;;;;;9.00;7.22;;;;;;;24.73;66.97;97354.63;5005772;28;20518;-65
2022/06/04 05:44:34;;;;;;;9.60;7.30;;;;;;;24.63;65.21;97304.72;5007151;28;20583;-66
2022/06/04 05:47:04;;;;;;;9.18;7.38;;;;;;;25.15;64.31;97364.47;5006992;28;20084;-66
2022/06/04 05:49:34;;;;;;;9.65;7.63;;;;;;;25.39;63.15;97366.94;5013591;28;20536;-65
2022/06/04 05:52:02;;;;;;;13.32;7.68;;;;;;;25.54;63.19;97373.66;5005353;28;20139;-65
2022/06/04 05:54:32;;;;;;;11.52;8.07;;;;;;;25.69;62.73;97374.72;5004480;28;20054;-65
2022/06/04 05:56:59;;;;;;;11.02;7.70;;;;;;;25.78;62.68;97372.72;4995587;28;20120;-64
2022/06/04 05:59:26;;;;;;;11.73;8.65;;;;;;;25.46;65.00;97367.47;5006537;28;21174;-65
2022/06/04 06:01:53;;;;;;;14.65;8.18;;;;;;;25.45;64.94;97370.75;5006381;28;20052;-63
2022/06/04 06:04:21;;;;;;;12.10;8.82;;;;;;;25.42;65.59;97366.00;5006571;28;20578;-66
2022/06/04 06:06:50;;;;;;;9.52;8.52;;;;;;;25.66;63.73;97364.28;5004846;28;20054;-64
2022/06/04 06:09:20;;;;;;;10.85;7.93;;;;;;;25.98;62.53;97369.53;5006510;28;20050;-65
2022/06/04 06:11:49;;;;;;;9.85;7.88;;;;;;;26.06;62.55;97353.84;5006538;28;20054;-65
2022/06/04 06:14:16;;;;;;;15.68;8.70;;;;;;;26.26;62.20;97362.78;5003614;28;20054;-65
2022/06/04 06:16:47;;;;;;;15.93;8.20;;;;;;;26.42;61.51;97354.00;5005134;28;20050;-65
2022/06/04 06:19:16;;;;;;;9.48;8.50;;;;;;;26.01;60.56;97283.44;5004816;28;20508;-64
2022/06/04 06:21:43;;;;;;;9.73;8.77;;;;;;;26.62;60.63;97334.47;5004420;28;20054;-63
2022/06/04 06:24:12;;;;;;;9.23;8.15;;;;;;;26.80;59.29;97345.94;5004109;28;20675;-66
2022/06/04 06:26:53;;;;;;;11.93;8.35;;;;;;;27.03;58.80;97353.88;5004291;28;20501;-64
2022/06/04 06:29:29;;;;;;;12.30;7.82;;;;;;;25.62;58.27;97119.59;5004208;28;20471;-64
2022/06/04 06:31:57;;;;;;;8.38;7.57;;;;;;;26.28;60.57;97335.50;5003887;28;20770;-64
2022/06/04 06:34:25;;;;;;;8.73;8.02;;;;;;;26.66;59.42;97347.34;5004047;28;20061;-66
2022/06/04 06:36:51;;;;;;;8.70;8.00;;;;;;;26.95;58.95;97351.81;5005870;28;20546;-66
2022/06/04 06:39:19;;;;;;;10.88;7.97;;;;;;;26.76;59.66;97347.34;5004532;28;20057;-66
2022/06/04 06:41:46;;;;;;;14.13;8.73;;;;;;;26.93;59.79;97337.28;5005360;28;20057;-64
2022/06/04 06:44:14;;;;;;;9.25;8.32;;;;;;;26.84;60.44;97337.28;5004871;28;20132;-70
2022/06/04 06:46:46;;;;;;;9.07;8.18;;;;;;;26.77;60.20;97287.19;5004681;28;20061;-66
2022/06/04 06:49:21;;;;;;;9.25;8.25;;;;;;;27.47;59.04;97331.66;5004948;28;20053;-66
2022/06/04 06:51:54;;;;;;;9.90;8.27;;;;;;;27.60;58.13;97335.91;5005199;28;20378;-65
2022/06/04 06:54:22;;;;;;;;;;;;;;;27.71;57.69;97324.81;5006114;28;20571;-65
2022/06/04 06:56:49;;;;;;;9.90;8.55;;;;;;;26.99;60.78;97330.50;5005981;28;20347;-66
2022/06/04 06:59:20;;;;;;;12.82;9.50;;;;;;;27.42;58.00;97326.59;5004285;28;20060;-65
2022/06/04 07:01:51;;;;;;;9.30;8.50;;;;;;;27.61;58.26;97323.25;5005440;28;20054;-64
2022/06/04 07:04:21;;;;;;;10.27;8.13;;;;;;;27.78;57.45;97330.19;5004799;28;20563;-66
2022/06/04 07:06:51;;;;;;;11.02;8.65;;;;;;;27.84;56.76;97327.47;5004893;28;20061;-68
2022/06/04 07:09:24;;;;;;;7.57;6.97;;;;;;;27.94;56.46;97309.13;5005147;28;20365;-67
2022/06/04 07:11:51;;;;;;;10.23;8.25;;;;;;;27.89;56.03;97296.34;5004706;28;20058;-66
2022/06/04 07:14:18;;;;;;;10.63;8.68;;;;;;;28.35;54.64;97296.94;5003552;28;20069;-65
2022/06/04 07:16:46;;;;;;;13.57;8.65;;;;;;;28.56;53.55;97320.78;5003154;28;20062;-66
2022/06/04 07:19:15;;;;;;;9.10;8.20;;;;;;;28.52;54.01;97285.94;4985648;28;20050;-63
2022/06/04 07:21:42;;;;;;;10.43;8.65;;;;;;;28.63;54.02;97280.53;5003842;28;20444;-71
2022/06/04 07:24:11;;;;;;;9.60;8.80;;;;;;;28.94;53.45;97286.66;5003943;28;20050;-65
2022/06/04 07:26:39;;;;;;;9.57;8.73;;;;;;;29.27;51.88;97318.75;5003734;28;20045;-64
2022/06/04 07:29:07;;;;;;;9.82;8.82;;;;;;;28.96;51.57;97252.72;5002894;28;20563;-63
2022/06/04 07:31:35;;;;;;;11.27;8.20;;;;;;;29.62;51.13;97316.88;5004684;28;20061;-63
2022/06/04 07:34:01;;;;;;;10.30;8.27;;;;;;;29.53;50.76;97297.75;5004896;28;20064;-65
2022/06/04 07:36:32;;;;;;;11.95;8.43;;;;;;;29.50;49.67;97280.78;5004337;28;20513;-66
2022/06/04 07:38:59;;;;;;;11.95;8.90;;;;;;;29.79;49.87;97312.28;5003605;28;20046;-65
2022/06/04 07:41:28;;;;;;;8.88;8.07;;;;;;;29.86;48.45;97317.59;5004535;28;20057;-63
2022/06/04 07:43:55;;;;;;;9.88;9.05;;;;;;;30.00;47.35;97313.97;5002918;28;20050;-61
2022/06/04 07:46:25;;;;;;;8.98;8.07;;;;;;;29.68;48.32;97317.00;5004498;28;20050;-62
2022/06/04 07:48:55;;;;;;;10.77;8.25;;;;;;;29.81;47.20;97297.50;5004491;28;20129;-66
2022/06/04 07:51:22;;;;;;;10.43;8.35;;;;;;;29.83;48.42;97309.22;5004088;28;20081;-65
2022/06/04 07:53:49;;;;;;;9.82;8.55;;;;;;;29.88;47.25;97312.19;5004028;28;20062;-63
2022/06/04 07:56:18;;;;;;;9.10;8.20;;;;;;;29.60;47.56;97296.56;5002523;28;20064;-65
2022/06/04 07:58:46;;;;;;;8.82;7.97;;;;;;;29.46;47.23;97331.59;5003159;28;20053;-63
2022/06/04 08:01:15;;;;;;;11.90;8.63;;;;;;;29.75;47.44;97313.75;5004337;28;20060;-64
2022/06/04 08:03:44;;;;;;;14.38;8.93;;;;;;;29.32;48.92;97269.56;5004707;28;20371;-64
2022/06/04 08:06:13;;;;;;;9.35;8.40;;;;;;;30.11;45.79;97308.44;5004055;28;20101;-63
2022/06/04 08:08:40;;;;;;;8.55;7.85;;;;;;;30.27;45.86;97287.91;5002915;28;20058;-63
2022/06/04 08:13:53;;;;;;;8.23;7.53;;;;;;;30.35;44.96;97249.06;5004024;28;20709;-62
2022/06/04 08:16:20;;;;;;;8.75;7.78;;;;;;;31.00;44.45;97304.13;5004398;28;20066;-62
2022/06/04 08:18:47;;;;;;;9.98;8.73;;;;;;;30.91;44.83;97297.25;5004288;28;20046;-60
2022/06/04 08:21:15;;;;;;;8.57;7.88;;;;;;;29.20;44.57;97067.97;5004472;28;20061;-64
2022/06/04 08:23:44;;;;;;;9.18;7.88;;;;;;;30.06;45.48;97306.28;5004432;28;20434;-62
2022/06/04 08:26:12;;;;;;;8.88;8.10;;;;;;;29.50;46.13;97261.59;5003740;28;20531;-61
2022/06/04 08:28:39;;;;;;;8.98;5.93;;;;;;;30.33;45.57;97296.59;5004315;28;20054;-62
2022/06/04 08:31:14;;;;;;;6.03;4.35;;;;;;;30.82;44.39;97291.66;5003666;28;20046;-64
2022/06/04 08:33:41;;;;;;;7.63;5.90;;;;;;;29.88;44.61;97237.88;5002288;28;20332;-63
2022/06/04 08:36:10;;;;;;;9.43;5.50;;;;;;;29.81;45.06;97289.72;5003558;28;20068;-65
2022/06/04 08:38:38;;;;;;;19.08;6.85;;;;;;;30.32;45.22;97283.59;5002694;28;20084;-63
2022/06/04 08:41:08;;;;;;;5.63;5.13;;;;;;;30.68;43.41;97249.53;5003841;28;20058;-62
2022/06/04 08:43:49;;;;;;;6.70;5.47;;;;;;;31.33;42.39;97275.94;5018710;28;20441;-62
2022/06/04 08:46:21;;;;;;;7.72;5.43;;;;;;;31.41;42.60;97271.34;5003674;28;20062;-60
2022/06/04 08:48:48;;;;;;;6.82;5.82;;;;;;;31.60;43.42;97249.69;5003514;28;20062;-64
2022/06/04 08:51:23;;;;;;;9.20;5.25;;;;;;;31.21;42.42;97179.72;5002058;28;20050;-61
2022/06/04 08:53:53;;;;;;;8.45;5.78;;;;;;;31.96;41.60;97266.97;5003054;28;20230;-65
2022/06/04 08:59:35;;;;;;;8.32;6.88;;;;;;;32.06;41.20;97276.16;5003877;28;20470;-65
2022/06/04 09:02:04;;;;;;;8.18;5.70;;;;;;;31.73;41.55;97259.44;5001247;28;20057;-64
2022/06/04 09:04:43;;;;;;;6.35;5.82;;;;;;;30.80;43.30;97257.03;5001400;28;20056;-63
2022/06/04 09:07:14;;;;;;;8.95;6.35;;;;;;;31.24;42.41;97268.25;5003812;28;20057;-64
2022/06/04 09:09:44;;;;;;;9.48;5.95;;;;;;;31.54;41.96;97257.41;5006046;28;20064;-64
2022/06/04 09:12:34;;;;;;;9.35;5.82;;;;;;;31.49;41.43;97261.78;5007133;28;20493;-64
2022/06/04 09:15:10;;;;;;;7.25;6.18;;;;;;;31.68;40.61;97268.00;5006764;28;20515;-63
2022/06/04 09:17:44;;;;;;;6.90;5.18;;;;;;;32.04;40.24;97250.88;5007741;28;20488;-63
2022/06/04 09:20:26;;;;;;;6.75;6.00;;;;;;;32.13;41.16;97249.91;5007447;28;20053;-64
2022/06/04 09:22:59;;;;;;;7.43;5.05;;;;;;;32.73;39.82;97246.72;5005558;28;20054;-63
2022/06/04 09:25:34;;;;;;;5.97;5.45;;;;;;;32.89;38.49;97246.03;5005572;28;20452;-63
2022/06/04 09:28:24;;;;;;;6.40;5.80;;;;;;;32.91;38.74;97222.56;5007750;28;20467;-64
2022/06/04 09:31:13;;;;;;;4.93;4.55;;;;;;;33.25;38.00;97239.41;5007120;28;20464;-63
2022/06/04 09:33:57;;;;;;;8.38;4.85;;;;;;;33.50;37.99;97238.44;5009422;28;20069;-63
2022/06/04 09:36:33;;;;;;;6.85;5.55;;;;;;;33.71;37.13;97236.94;5006713;28;20049;-63
2022/06/04 09:39:05;;;;;;;6.80;5.50;;;;;;;33.72;37.91;97231.94;5005918;28;20049;-64
2022/06/04 09:41:34;;;;;;;5.72;5.25;;;;;;;33.65;37.86;97233.25;5005440;28;20129;-64
2022/06/04 09:44:04;;;;;;;9.23;5.47;;;;;;;33.62;38.07;97199.81;5006800;28;20799;-63
2022/06/04 09:46:31;;;;;;;11.45;6.13;;;;;;;33.48;37.81;97200.06;4998442;28;20178;-63
2022/06/04 09:48:59;;;;;;;6.47;5.85;;;;;;;33.40;37.78;97173.91;5005238;28;20130;-63
2022/06/04 09:51:29;;;;;;;5.82;5.10;;;;;;;33.95;36.76;97209.78;5004871;28;20053;-62
2022/06/04 09:54:05;;;;;;;15.65;9.60;;;;;;;33.80;37.68;97215.75;5006903;28;20053;-62
2022/06/04 09:56:39;;;;;;;13.52;8.07;;;;;;;33.92;36.89;97216.59;5005121;28;20050;-63
2022/06/04 09:59:30;;;;;;;6.40;5.47;;;;;;;33.03;38.25;97170.41;5006787;28;20437;-62
2022/06/04 10:02:00;;;;;;;5.53;5.10;;;;;;;33.42;38.26;97207.88;5006013;28;20061;-62
2022/06/04 10:04:48;;;;;;;9.68;7.45;;;;;;;32.70;38.59;97221.91;5005290;28;20463;-63
2022/06/04 10:07:28;;;;;;;7.03;4.88;;;;;;;32.70;39.07;97210.44;4987143;28;20062;-62
2022/06/04 10:09:56;;;;;;;7.68;5.30;;;;;;;33.03;38.31;97204.88;4986627;28;20065;-63
2022/06/04 10:15:38;;;;;;;6.65;4.88;;;;;;;33.47;37.19;97176.28;4986766;28;20046;-64
2022/06/04 10:18:18;;;;;;;6.95;5.15;;;;;;;33.52;36.73;97195.63;4984988;28;20533;-63
2022/06/04 10:20:57;;;;;;;7.78;5.00;;;;;;;33.86;37.11;97184.91;4985276;28;20097;-63
2022/06/04 10:23:26;;;;;;;7.18;5.85;;;;;;;33.83;36.30;97153.56;4985132;28;20062;-63
2022/06/04 10:26:06;;;;;;;5.70;5.22;;;;;;;34.28;35.79;97175.25;4986709;28;20058;-63
2022/06/04 10:28:43;;;;;;;5.82;5.32;;;;;;;34.51;35.79;97165.28;4987131;28;20058;-62
2022/06/04 10:31:28;;;;;;;5.45;4.95;;;;;;;34.23;34.73;97173.16;4986749;28;20050;-65
2022/06/04 10:34:15;;;;;;;7.43;5.78;;;;;;;34.56;35.24;97164.47;4985995;28;20082;-63
2022/06/04 10:36:58;;;;;;;9.05;4.78;;;;;;;34.81;34.66;97166.19;4984766;28;20069;-64
2022/06/04 10:39:43;;;;;;;10.40;4.30;;;;;;;34.69;34.55;97141.66;4984819;28;20437;-62
2022/06/04 10:42:19;;;;;;;10.75;5.97;;;;;;;35.13;34.23;97164.53;4986843;28;20051;-61
2022/06/04 10:44:49;;;;;;;6.10;5.40;;;;;;;35.41;33.78;97156.50;4986642;28;20066;-64
2022/06/04 10:47:35;;;;;;;5.30;4.90;;;;;;;36.05;33.12;97149.22;4986158;28;20059;-63
2022/06/04 10:50:32;;;;;;;5.30;4.90;;;;;;;36.23;32.81;97143.53;4984668;28;20141;-63
2022/06/04 10:53:22;;;;;;;5.20;4.80;;;;;;;36.63;32.15;97144.69;4985578;28;20065;-63
2022/06/04 10:55:55;;;;;;;7.10;4.35;;;;;;;36.42;31.74;97147.28;5000354;28;20065;-64
2022/06/04 10:58:45;;;;;;;8.13;5.45;;;;;;;36.20;32.02;97130.16;4985772;28;20058;-63
2022/06/04 11:01:31;;;;;;;6.55;5.93;;;;;;;35.37;32.80;97075.34;4986127;28;20116;-63
2022/06/04 11:04:35;;;;;;;5.38;4.97;;;;;;;35.29;33.12;97136.91;4986378;28;20065;-63
2022/06/04 11:07:52;;;;;;;5.63;4.50;;;;;;;35.28;32.10;97144.81;5003638;28;20070;-63
2022/06/04 11:10:30;;;;;;;8.52;5.38;;;;;;;34.85;31.62;97086.09;5006577;28;20077;-62
2022/06/04 11:13:06;;;;;;;4.85;4.45;;;;;;;35.13;31.31;97129.94;5020490;28;20058;-63
2022/06/04 11:15:51;;;;;;;6.60;4.63;;;;;;;35.02;32.13;97124.25;5005084;28;20527;-62
2022/06/04 11:19:02;;;;;;;5.43;4.93;;;;;;;34.77;31.74;97126.19;5019495;28;20713;-61
2022/06/04 11:22:00;;;;;;;5.57;4.78;;;;;;;33.45;32.65;97052.47;5003191;28;20133;-62
2022/06/04 11:24:33;;;;;;;6.25;4.93;;;;;;;32.67;35.13;97113.91;5011356;28;20468;-61
2022/06/04 11:27:04;;;;;;;5.20;4.70;;;;;;;32.35;35.80;97121.03;5004965;28;20072;-61
2022/06/04 11:29:31;;;;;;;7.00;4.18;;;;;;;32.66;34.76;97089.34;5019385;28;20516;-61
2022/06/04 11:32:06;;;;;;;6.10;4.70;;;;;;;32.86;34.13;97086.31;5004732;28;20088;-62
2022/06/04 11:34:50;;;;;;;4.50;4.20;;;;;;;33.27;34.31;97112.50;5005234;28;20169;-62
2022/06/04 11:37:19;;;;;;;5.13;4.63;;;;;;;32.66;34.54;97111.53;5019753;28;20144;-61
2022/06/04 11:40:16;;;;;;;14.98;9.38;;;;;;;33.05;34.30;97103.84;5004838;28;20248;-62
2022/06/04 11:42:57;;;;;;;6.32;4.90;;;;;;;33.79;33.25;97104.97;5004982;28;20426;-62
2022/06/04 11:45:52;;;;;;;10.63;6.50;;;;;;;33.47;33.74;97107.31;5005204;28;20726;-65
2022/06/04 11:48:40;;;;;;;6.78;4.50;;;;;;;34.07;32.80;97096.31;5004599;28;20054;-64
2022/06/04 11:51:25;;;;;;;5.82;4.63;;;;;;;34.66;32.07;97108.19;5019410;28;20062;-63
2022/06/04 11:54:33;;;;;;;7.40;4.93;;;;;;;34.45;33.33;97092.56;5019191;28;20649;-63
2022/06/04 11:57:35;;;;;;;8.43;5.22;;;;;;;35.13;31.72;97083.84;5019175;28;20053;-62
2022/06/04 12:00:12;;;;;;;5.25;4.75;;;;;;;35.41;31.30;97075.06;5019829;28;20057;-63
2022/06/04 12:02:48;;;;;;;5.65;5.25;;;;;;;34.94;31.88;97074.28;5019017;28;20512;-63
2022/06/04 12:05:46;;;;;;;6.63;4.78;;;;;;;34.86;32.73;97084.78;5004345;28;20055;-63
2022/06/04 12:08:19;;;;;;;5.20;4.75;;;;;;;34.85;33.07;97051.56;5003806;28;20568;-62
2022/06/04 12:11:16;;;;;;;4.88;4.22;;;;;;;35.28;31.48;97077.72;5002717;28;20050;-62
2022/06/04 12:13:53;;;;;;;5.78;4.60;;;;;;;35.53;32.12;97065.78;5002896;28;20061;-62